sensor_id;sensor_type;location;lat;lon;timestamp;pressure;altitude;pressure_sealevel;temperature;humidity
29247;BME280;16272;48.188;9.964;2023-02-18T00:01:45;96772.91;;;10.93;73.76
29247;BME280;16272;48.188;9.964;2023-02-18T00:04:10;96769.28;;;10.94;74.28
29247;BME280;16272;48.188;9.964;2023-02-18T00:06:36;96772.38;;;10.99;73.98
29247;BME280;16272;48.188;9.964;2023-02-18T00:09:03;96768.03;;;11.19;73.41
29247;BME280;16272;48.188;9.964;2023-02-18T00:11:32;96769.28;;;10.94;74.17
29247;BME280;16272;48.188;9.964;2023-02-18T00:13:59;96761.50;;;11.02;74.18
29247;BME280;16272;48.188;9.964;2023-02-18T00:16:26;96759.84;;;11.11;73.81
29247;BME280;16272;48.188;9.964;2023-02-18T00:18:57;96760.00;;;10.88;74.15
29247;BME280;16272;48.188;9.964;2023-02-18T00:21:24;96756.69;;;10.75;75.08
29247;BME280;16272;48.188;9.964;2023-02-18T00:23:50;96748.91;;;11.04;73.91
29247;BME280;16272;48.188;9.964;2023-02-18T00:26:17;96749.69;;;10.95;74.13
29247;BME280;16272;48.188;9.964;2023-02-18T00:28:42;96750.69;;;10.73;75.03
29247;BME280;16272;48.188;9.964;2023-02-18T00:31:13;96753.38;;;10.61;76.03
29247;BME280;16272;48.188;9.964;2023-02-18T00:33:40;96743.13;;;10.57;75.43
29247;BME280;16272;48.188;9.964;2023-02-18T00:36:08;96748.34;;;10.79;75.09
29247;BME280;16272;48.188;9.964;2023-02-18T00:38:35;96750.34;;;10.66;75.15
29247;BME280;16272;48.188;9.964;2023-02-18T00:41:01;96753.63;;;10.58;75.66
29247;BME280;16272;48.188;9.964;2023-02-18T00:43:27;96750.44;;;10.43;76.38
29247;BME280;16272;48.188;9.964;2023-02-18T00:45:53;96751.50;;;10.52;75.82
29247;BME280;16272;48.188;9.964;2023-02-18T00:48:19;96746.06;;;10.54;75.89
29247;BME280;16272;48.188;9.964;2023-02-18T00:50:45;96737.56;;;10.39;76.35
29247;BME280;16272;48.188;9.964;2023-02-18T00:53:11;96732.31;;;10.48;75.75
29247;BME280;16272;48.188;9.964;2023-02-18T00:55:39;96726.50;;;10.55;74.62
29247;BME280;16272;48.188;9.964;2023-02-18T00:58:04;96725.50;;;10.77;73.62
29247;BME280;16272;48.188;9.964;2023-02-18T01:00:30;96728.94;;;10.46;75.36
29247;BME280;16272;48.188;9.964;2023-02-18T01:02:56;96732.13;;;10.29;75.55
29247;BME280;16272;48.188;9.964;2023-02-18T01:05:21;96730.22;;;10.20;76.72
29247;BME280;16272;48.188;9.964;2023-02-18T01:07:47;96727.25;;;10.45;75.50
29247;BME280;16272;48.188;9.964;2023-02-18T01:10:12;96733.81;;;10.41;76.34
29247;BME280;16272;48.188;9.964;2023-02-18T01:12:38;96724.69;;;10.11;77.03
29247;BME280;16272;48.188;9.964;2023-02-18T01:15:04;96718.09;;;10.06;77.34
29247;BME280;16272;48.188;9.964;2023-02-18T01:17:30;96713.75;;;10.05;77.03
29247;BME280;16272;48.188;9.964;2023-02-18T01:19:57;96718.22;;;10.04;77.04
29247;BME280;16272;48.188;9.964;2023-02-18T01:22:23;96717.75;;;9.99;77.42
29247;BME280;16272;48.188;9.964;2023-02-18T01:24:49;96728.59;;;10.07;77.35
29247;BME280;16272;48.188;9.964;2023-02-18T01:27:14;96717.72;;;10.10;77.11
29247;BME280;16272;48.188;9.964;2023-02-18T01:29:39;96724.47;;;10.03;77.69
29247;BME280;16272;48.188;9.964;2023-02-18T01:32:05;96727.56;;;10.20;76.88
29247;BME280;16272;48.188;9.964;2023-02-18T01:34:30;96718.50;;;10.34;76.49
29247;BME280;16272;48.188;9.964;2023-02-18T01:36:56;96710.81;;;10.19;77.32
29247;BME280;16272;48.188;9.964;2023-02-18T01:39:22;96713.41;;;9.98;77.95
29247;BME280;16272;48.188;9.964;2023-02-18T01:41:47;96697.66;;;10.18;76.99
29247;BME280;16272;48.188;9.964;2023-02-18T01:44:22;96711.91;;;10.17;77.10
29247;BME280;16272;48.188;9.964;2023-02-18T01:46:49;96711.13;;;9.93;78.47
29247;BME280;16272;48.188;9.964;2023-02-18T01:49:25;96700.88;;;10.00;77.85
29247;BME280;16272;48.188;9.964;2023-02-18T01:51:54;96700.50;;;10.26;76.73
29247;BME280;16272;48.188;9.964;2023-02-18T01:54:26;96710.63;;;10.00;77.86
29247;BME280;16272;48.188;9.964;2023-02-18T01:57:17;96708.19;;;10.08;77.03
29247;BME280;16272;48.188;9.964;2023-02-18T02:02:14;96714.06;;;10.11;76.28
29247;BME280;16272;48.188;9.964;2023-02-18T02:04:42;96702.09;;;9.96;77.08
29247;BME280;16272;48.188;9.964;2023-02-18T02:07:07;96697.41;;;9.88;78.33
29247;BME280;16272;48.188;9.964;2023-02-18T02:09:33;96698.72;;;9.94;77.53
29247;BME280;16272;48.188;9.964;2023-02-18T02:12:32;96695.09;;;9.84;77.66
29247;BME280;16272;48.188;9.964;2023-02-18T02:25:57;96694.78;;;9.77;78.47
29247;BME280;16272;48.188;9.964;2023-02-18T02:35:05;96672.56;;;9.34;80.91
29247;BME280;16272;48.188;9.964;2023-02-18T02:37:53;96677.72;;;9.47;80.24
29247;BME280;16272;48.188;9.964;2023-02-18T02:40:34;96693.97;;;9.54;80.89
29247;BME280;16272;48.188;9.964;2023-02-18T02:46:17;96681.03;;;9.72;79.44
29247;BME280;16272;48.188;9.964;2023-02-18T02:52:07;96684.78;;;9.81;79.18
29247;BME280;16272;48.188;9.964;2023-02-18T02:54:37;96682.06;;;9.60;80.78
29247;BME280;16272;48.188;9.964;2023-02-18T02:59:46;96673.84;;;9.63;80.59
29247;BME280;16272;48.188;9.964;2023-02-18T03:05:11;96665.16;;;9.61;80.46
29247;BME280;16272;48.188;9.964;2023-02-18T03:13:09;96662.78;;;9.90;78.28
29247;BME280;16272;48.188;9.964;2023-02-18T03:15:46;96665.03;;;9.62;80.31
29247;BME280;16272;48.188;9.964;2023-02-18T03:18:19;96663.22;;;9.74;79.45
29247;BME280;16272;48.188;9.964;2023-02-18T03:20:54;96666.22;;;9.69;79.23
29247;BME280;16272;48.188;9.964;2023-02-18T03:23:26;96676.06;;;9.79;79.23
29247;BME280;16272;48.188;9.964;2023-02-18T03:25:55;96683.81;;;9.70;79.60
29247;BME280;16272;48.188;9.964;2023-02-18T03:28:26;96672.47;;;9.80;79.68
29247;BME280;16272;48.188;9.964;2023-02-18T03:30:56;96665.59;;;9.77;79.17
29247;BME280;16272;48.188;9.964;2023-02-18T03:33:27;96663.47;;;9.71;79.22
29247;BME280;16272;48.188;9.964;2023-02-18T03:35:55;96662.19;;;9.86;79.28
29247;BME280;16272;48.188;9.964;2023-02-18T03:38:35;96666.69;;;9.74;79.46
29247;BME280;16272;48.188;9.964;2023-02-18T03:41:03;96658.06;;;9.61;80.50
29247;BME280;16272;48.188;9.964;2023-02-18T03:43:29;96651.50;;;9.77;79.03
29247;BME280;16272;48.188;9.964;2023-02-18T03:45:55;96662.50;;;9.61;79.18
29247;BME280;16272;48.188;9.964;2023-02-18T03:48:20;96659.16;;;9.47;80.47
29247;BME280;16272;48.188;9.964;2023-02-18T03:50:46;96648.31;;;9.39;80.63
29247;BME280;16272;48.188;9.964;2023-02-18T03:53:11;96645.06;;;9.47;80.97
29247;BME280;16272;48.188;9.964;2023-02-18T03:55:36;96636.06;;;9.70;79.30
29247;BME280;16272;48.188;9.964;2023-02-18T03:58:02;96646.94;;;9.67;79.99
29247;BME280;16272;48.188;9.964;2023-02-18T04:00:29;96649.13;;;9.51;79.21
29247;BME280;16272;48.188;9.964;2023-02-18T04:02:55;96656.78;;;9.77;78.90
29247;BME280;16272;48.188;9.964;2023-02-18T04:05:20;96654.50;;;9.40;80.42
29247;BME280;16272;48.188;9.964;2023-02-18T04:07:45;96647.84;;;9.34;80.63
29247;BME280;16272;48.188;9.964;2023-02-18T04:10:11;96655.06;;;9.54;79.58
29247;BME280;16272;48.188;9.964;2023-02-18T04:12:37;96652.78;;;9.50;80.16
29247;BME280;16272;48.188;9.964;2023-02-18T04:15:03;96647.72;;;9.47;80.54
29247;BME280;16272;48.188;9.964;2023-02-18T04:17:28;96644.59;;;9.42;79.91
29247;BME280;16272;48.188;9.964;2023-02-18T04:19:54;96632.97;;;9.54;79.25
29247;BME280;16272;48.188;9.964;2023-02-18T04:22:19;96638.75;;;9.59;79.02
29247;BME280;16272;48.188;9.964;2023-02-18T04:24:44;96637.34;;;9.55;79.93
29247;BME280;16272;48.188;9.964;2023-02-18T04:27:10;96631.09;;;9.45;79.91
29247;BME280;16272;48.188;9.964;2023-02-18T04:29:36;96622.69;;;9.40;80.06
29247;BME280;16272;48.188;9.964;2023-02-18T04:32:01;96624.00;;;9.34;80.51
29247;BME280;16272;48.188;9.964;2023-02-18T04:34:27;96630.41;;;9.31;79.85
29247;BME280;16272;48.188;9.964;2023-02-18T04:36:52;96629.28;;;9.45;79.36
29247;BME280;16272;48.188;9.964;2023-02-18T04:39:17;96632.19;;;9.31;80.55
29247;BME280;16272;48.188;9.964;2023-02-18T04:41:43;96632.94;;;9.65;78.67
29247;BME280;16272;48.188;9.964;2023-02-18T04:44:08;96639.53;;;9.38;79.40
29247;BME280;16272;48.188;9.964;2023-02-18T04:46:33;96645.06;;;9.47;79.79
29247;BME280;16272;48.188;9.964;2023-02-18T04:48:59;96654.03;;;9.23;80.97
29247;BME280;16272;48.188;9.964;2023-02-18T04:51:25;96646.38;;;9.52;79.84
29247;BME280;16272;48.188;9.964;2023-02-18T04:53:50;96645.06;;;9.47;80.05
29247;BME280;16272;48.188;9.964;2023-02-18T04:56:17;96638.81;;;9.36;79.72
29247;BME280;16272;48.188;9.964;2023-02-18T04:58:42;96640.50;;;9.37;79.49
29247;BME280;16272;48.188;9.964;2023-02-18T05:01:07;96644.38;;;9.77;78.56
29247;BME280;16272;48.188;9.964;2023-02-18T05:03:33;96639.56;;;9.82;77.35
29247;BME280;16272;48.188;9.964;2023-02-18T05:05:58;96639.63;;;9.60;78.67
29247;BME280;16272;48.188;9.964;2023-02-18T05:08:23;96642.81;;;9.74;77.28
29247;BME280;16272;48.188;9.964;2023-02-18T05:10:49;96647.56;;;9.60;78.35
29247;BME280;16272;48.188;9.964;2023-02-18T05:13:14;96650.69;;;9.65;78.21
29247;BME280;16272;48.188;9.964;2023-02-18T05:15:40;96646.78;;;9.36;79.25
29247;BME280;16272;48.188;9.964;2023-02-18T05:18:06;96652.50;;;9.64;78.54
29247;BME280;16272;48.188;9.964;2023-02-18T05:20:32;96643.78;;;9.30;79.79
29247;BME280;16272;48.188;9.964;2023-02-18T05:22:58;96644.56;;;9.64;78.06
29247;BME280;16272;48.188;9.964;2023-02-18T05:25:24;96638.53;;;9.51;78.89
29247;BME280;16272;48.188;9.964;2023-02-18T05:27:49;96625.66;;;9.57;78.23
29247;BME280;16272;48.188;9.964;2023-02-18T05:30:14;96629.28;;;9.45;79.21
29247;BME280;16272;48.188;9.964;2023-02-18T05:32:40;96615.44;;;9.42;79.36
29247;BME280;16272;48.188;9.964;2023-02-18T05:35:06;96623.69;;;9.60;78.19
29247;BME280;16272;48.188;9.964;2023-02-18T05:37:32;96628.47;;;9.33;79.21
29247;BME280;16272;48.188;9.964;2023-02-18T05:39:58;96614.56;;;9.41;78.74
29247;BME280;16272;48.188;9.964;2023-02-18T05:42:23;96612.31;;;9.36;79.62
29247;BME280;16272;48.188;9.964;2023-02-18T05:44:48;96617.72;;;9.79;77.74
29247;BME280;16272;48.188;9.964;2023-02-18T05:47:14;96618.75;;;9.66;77.64
29247;BME280;16272;48.188;9.964;2023-02-18T05:49:41;96607.03;;;9.36;78.89
29247;BME280;16272;48.188;9.964;2023-02-18T05:52:07;96612.28;;;9.48;78.37
29247;BME280;16272;48.188;9.964;2023-02-18T05:54:34;96622.75;;;9.49;78.58
29247;BME280;16272;48.188;9.964;2023-02-18T05:57:01;96625.28;;;9.51;77.62
29247;BME280;16272;48.188;9.964;2023-02-18T05:59:26;96622.41;;;9.43;78.24
29247;BME280;16272;48.188;9.964;2023-02-18T06:01:52;96626.09;;;9.95;76.32
29247;BME280;16272;48.188;9.964;2023-02-18T06:04:20;96629.84;;;9.60;77.76
29247;BME280;16272;48.188;9.964;2023-02-18T06:06:45;96630.06;;;9.68;77.37
29247;BME280;16272;48.188;9.964;2023-02-18T06:09:11;96626.97;;;9.52;78.09
29247;BME280;16272;48.188;9.964;2023-02-18T06:11:38;96636.69;;;9.95;76.17
29247;BME280;16272;48.188;9.964;2023-02-18T06:14:04;96636.75;;;9.84;76.23
29247;BME280;16272;48.188;9.964;2023-02-18T06:16:31;96629.34;;;9.66;77.40
29247;BME280;16272;48.188;9.964;2023-02-18T06:18:58;96625.91;;;9.54;77.25
29247;BME280;16272;48.188;9.964;2023-02-18T06:21:24;96618.97;;;9.63;77.32
29247;BME280;16272;48.188;9.964;2023-02-18T06:23:49;96616.50;;;9.83;76.20
29247;BME280;16272;48.188;9.964;2023-02-18T06:26:15;96613.78;;;9.73;77.21
29247;BME280;16272;48.188;9.964;2023-02-18T06:28:40;96615.78;;;9.81;76.47
29247;BME280;16272;48.188;9.964;2023-02-18T06:31:06;96623.59;;;10.15;74.94
29247;BME280;16272;48.188;9.964;2023-02-18T06:33:32;96629.16;;;9.90;75.38
29247;BME280;16272;48.188;9.964;2023-02-18T06:36:05;96635.28;;;9.59;77.15
29247;BME280;16272;48.188;9.964;2023-02-18T06:38:33;96630.03;;;9.80;76.21
29247;BME280;16272;48.188;9.964;2023-02-18T06:40:58;96629.28;;;9.89;76.34
29247;BME280;16272;48.188;9.964;2023-02-18T06:43:24;96626.06;;;9.74;76.83
29247;BME280;16272;48.188;9.964;2023-02-18T06:45:50;96630.03;;;9.80;76.18
29247;BME280;16272;48.188;9.964;2023-02-18T06:48:15;96629.28;;;10.10;75.51
29247;BME280;16272;48.188;9.964;2023-02-18T06:50:41;96616.38;;;9.52;76.96
29247;BME280;16272;48.188;9.964;2023-02-18T06:53:07;96621.06;;;9.92;75.46
29247;BME280;16272;48.188;9.964;2023-02-18T06:55:35;96614.06;;;9.91;75.48
29247;BME280;16272;48.188;9.964;2023-02-18T06:58:01;96622.47;;;9.96;75.33
29247;BME280;16272;48.188;9.964;2023-02-18T07:00:28;96627.13;;;9.83;76.36
29247;BME280;16272;48.188;9.964;2023-02-18T07:02:53;96628.56;;;9.75;76.28
29247;BME280;16272;48.188;9.964;2023-02-18T07:05:19;96627.13;;;9.83;75.86
29247;BME280;16272;48.188;9.964;2023-02-18T07:07:45;96622.31;;;9.77;76.09
29247;BME280;16272;48.188;9.964;2023-02-18T07:10:12;96622.72;;;9.93;75.32
29247;BME280;16272;48.188;9.964;2023-02-18T07:12:38;96619.38;;;9.91;75.20
29247;BME280;16272;48.188;9.964;2023-02-18T07:15:04;96617.56;;;10.12;73.88
29247;BME280;16272;48.188;9.964;2023-02-18T07:17:29;96620.16;;;10.03;74.93
29247;BME280;16272;48.188;9.964;2023-02-18T07:19:54;96615.66;;;10.03;74.85
29247;BME280;16272;48.188;9.964;2023-02-18T07:22:21;96608.53;;;10.15;74.27
29247;BME280;16272;48.188;9.964;2023-02-18T07:24:51;96614.78;;;10.14;73.82
29247;BME280;16272;48.188;9.964;2023-02-18T07:27:17;96614.00;;;10.02;74.59
29247;BME280;16272;48.188;9.964;2023-02-18T07:29:43;96620.97;;;10.36;73.79
29247;BME280;16272;48.188;9.964;2023-02-18T07:32:11;96617.06;;;10.19;73.53
29247;BME280;16272;48.188;9.964;2023-02-18T07:34:36;96615.16;;;10.09;73.94
29247;BME280;16272;48.188;9.964;2023-02-18T07:37:02;96614.00;;;10.02;74.35
29247;BME280;16272;48.188;9.964;2023-02-18T07:39:33;96613.53;;;10.18;73.66
29247;BME280;16272;48.188;9.964;2023-02-18T07:41:59;96607.91;;;10.11;73.42
29247;BME280;16272;48.188;9.964;2023-02-18T07:44:24;96610.41;;;10.45;72.30
29247;BME280;16272;48.188;9.964;2023-02-18T07:46:52;96608.00;;;10.42;72.36
29247;BME280;16272;48.188;9.964;2023-02-18T07:49:17;96613.50;;;10.51;72.14
29247;BME280;16272;48.188;9.964;2023-02-18T07:51:46;96615.56;;;10.26;72.48
29247;BME280;16272;48.188;9.964;2023-02-18T07:54:11;96613.59;;;10.28;72.21
29247;BME280;16272;48.188;9.964;2023-02-18T07:56:38;96607.41;;;10.60;71.72
29247;BME280;16272;48.188;9.964;2023-02-18T07:59:03;96608.94;;;10.53;71.77
29247;BME280;16272;48.188;9.964;2023-02-18T08:01:28;96603.41;;;10.75;70.43
29247;BME280;16272;48.188;9.964;2023-02-18T08:03:54;96590.47;;;10.92;70.18
29247;BME280;16272;48.188;9.964;2023-02-18T08:06:21;96602.75;;;10.83;69.79
29247;BME280;16272;48.188;9.964;2023-02-18T08:08:49;96600.81;;;11.26;68.75
29247;BME280;16272;48.188;9.964;2023-02-18T08:11:14;96599.53;;;11.20;68.19
29247;BME280;16272;48.188;9.964;2023-02-18T08:13:41;96604.19;;;10.97;69.65
29247;BME280;16272;48.188;9.964;2023-02-18T08:16:08;96599.84;;;11.27;69.26
29247;BME280;16272;48.188;9.964;2023-02-18T08:18:33;96582.00;;;13.01;64.41
29247;BME280;16272;48.188;9.964;2023-02-18T08:20:59;96599.06;;;12.24;65.52
29247;BME280;16272;48.188;9.964;2023-02-18T08:23:24;96583.59;;;14.22;60.85
29247;BME280;16272;48.188;9.964;2023-02-18T08:25:51;96588.03;;;13.31;60.50
29247;BME280;16272;48.188;9.964;2023-02-18T08:28:18;96589.78;;;13.86;59.91
29247;BME280;16272;48.188;9.964;2023-02-18T08:30:45;96587.03;;;14.58;58.09
29247;BME280;16272;48.188;9.964;2023-02-18T08:33:11;96590.66;;;15.52;56.76
29247;BME280;16272;48.188;9.964;2023-02-18T08:35:36;96579.38;;;16.41;55.96
29247;BME280;16272;48.188;9.964;2023-02-18T08:38:02;96571.97;;;15.18;56.60
29247;BME280;16272;48.188;9.964;2023-02-18T08:40:29;96593.00;;;14.52;58.91
29247;BME280;16272;48.188;9.964;2023-02-18T08:42:55;96584.94;;;13.36;61.63
29247;BME280;16272;48.188;9.964;2023-02-18T08:45:20;96586.34;;;13.58;60.71
29247;BME280;16272;48.188;9.964;2023-02-18T08:47:45;96581.41;;;13.63;61.72
29247;BME280;16272;48.188;9.964;2023-02-18T08:50:13;96579.69;;;13.16;62.94
29247;BME280;16272;48.188;9.964;2023-02-18T08:52:40;96569.78;;;13.36;61.97
29247;BME280;16272;48.188;9.964;2023-02-18T08:55:06;96569.09;;;13.52;61.71
29247;BME280;16272;48.188;9.964;2023-02-18T08:57:31;96565.63;;;12.96;61.88
29247;BME280;16272;48.188;9.964;2023-02-18T08:59:57;96572.63;;;13.53;61.60
29247;BME280;16272;48.188;9.964;2023-02-18T09:02:22;96573.59;;;13.34;61.77
29247;BME280;16272;48.188;9.964;2023-02-18T09:04:49;96563.91;;;12.95;62.74
29247;BME280;16272;48.188;9.964;2023-02-18T09:07:14;96561.09;;;13.24;61.76
29247;BME280;16272;48.188;9.964;2023-02-18T09:09:39;96567.22;;;13.63;62.06
29247;BME280;16272;48.188;9.964;2023-02-18T09:12:06;96562.94;;;13.24;62.60
29247;BME280;16272;48.188;9.964;2023-02-18T09:14:33;96565.50;;;13.16;61.68
29247;BME280;16272;48.188;9.964;2023-02-18T09:16:59;96562.25;;;13.22;61.53
29247;BME280;16272;48.188;9.964;2023-02-18T09:19:25;96548.88;;;13.04;60.93
29247;BME280;16272;48.188;9.964;2023-02-18T09:21:50;96559.78;;;12.83;61.68
29247;BME280;16272;48.188;9.964;2023-02-18T09:24:20;96557.66;;;13.42;61.02
29247;BME280;16272;48.188;9.964;2023-02-18T09:26:45;96556.94;;;14.30;59.99
29247;BME280;16272;48.188;9.964;2023-02-18T09:29:12;96542.09;;;13.91;59.87
29247;BME280;16272;48.188;9.964;2023-02-18T09:31:37;96530.75;;;14.60;58.63
29247;BME280;16272;48.188;9.964;2023-02-18T09:34:04;96553.25;;;14.57;58.37
29247;BME280;16272;48.188;9.964;2023-02-18T09:36:30;96544.00;;;14.69;58.17
29247;BME280;16272;48.188;9.964;2023-02-18T09:38:56;96532.63;;;15.10;57.62
29247;BME280;16272;48.188;9.964;2023-02-18T09:41:41;96542.47;;;14.67;58.60
29247;BME280;16272;48.188;9.964;2023-02-18T09:44:29;96544.78;;;14.36;58.59
29247;BME280;16272;48.188;9.964;2023-02-18T09:47:04;96546.22;;;14.74;57.53
29247;BME280;16272;48.188;9.964;2023-02-18T09:49:46;96540.91;;;14.30;58.86
29247;BME280;16272;48.188;9.964;2023-02-18T09:52:34;96540.00;;;13.31;61.24
29247;BME280;16272;48.188;9.964;2023-02-18T09:55:41;96550.81;;;13.57;60.24
29247;BME280;16272;48.188;9.964;2023-02-18T09:58:18;96536.09;;;13.35;61.27
29247;BME280;16272;48.188;9.964;2023-02-18T10:00:48;96526.44;;;12.97;62.90
29247;BME280;16272;48.188;9.964;2023-02-18T10:03:20;96533.78;;;12.57;63.14
29247;BME280;16272;48.188;9.964;2023-02-18T10:05:57;96538.66;;;12.99;62.27
29247;BME280;16272;48.188;9.964;2023-02-18T10:08:30;96528.22;;;12.78;62.73
29247;BME280;16272;48.188;9.964;2023-02-18T10:10:57;96547.38;;;12.64;62.85
29247;BME280;16272;48.188;9.964;2023-02-18T10:13:27;96535.09;;;13.09;62.67
29247;BME280;16272;48.188;9.964;2023-02-18T10:15:53;96538.47;;;13.11;62.27
29247;BME280;16272;48.188;9.964;2023-02-18T10:18:28;96523.28;;;13.57;61.45
29247;BME280;16272;48.188;9.964;2023-02-18T10:21:07;96516.25;;;13.38;60.05
29247;BME280;16272;48.188;9.964;2023-02-18T10:23:37;96511.47;;;13.41;61.03
29247;BME280;16272;48.188;9.964;2023-02-18T10:26:06;96510.91;;;13.56;60.86
29247;BME280;16272;48.188;9.964;2023-02-18T10:28:35;96514.16;;;13.41;60.54
29247;BME280;16272;48.188;9.964;2023-02-18T10:31:07;96511.94;;;13.37;61.35
29247;BME280;16272;48.188;9.964;2023-02-18T10:36:28;96493.03;;;13.48;60.09
29247;BME280;16272;48.188;9.964;2023-02-18T10:42:19;96497.50;;;13.48;60.24
29247;BME280;16272;48.188;9.964;2023-02-18T10:45:05;96482.25;;;13.22;61.97
29247;BME280;16272;48.188;9.964;2023-02-18T10:47:35;96469.75;;;13.76;59.90
29247;BME280;16272;48.188;9.964;2023-02-18T10:52:44;96484.94;;;13.40;60.47
29247;BME280;16272;48.188;9.964;2023-02-18T10:55:15;96486.00;;;14.09;59.46
29247;BME280;16272;48.188;9.964;2023-02-18T10:57:51;96483.56;;;12.90;61.80
29247;BME280;16272;48.188;9.964;2023-02-18T11:02:44;96489.91;;;13.53;60.66
29247;BME280;16272;48.188;9.964;2023-02-18T11:05:29;96484.59;;;13.25;61.39
29247;BME280;16272;48.188;9.964;2023-02-18T11:07:56;96484.88;;;13.50;60.85
29247;BME280;16272;48.188;9.964;2023-02-18T11:10:28;96488.06;;;13.35;61.87
29247;BME280;16272;48.188;9.964;2023-02-18T11:13:03;96487.31;;;13.43;61.69
29247;BME280;16272;48.188;9.964;2023-02-18T11:15:29;96475.69;;;13.70;60.49
29247;BME280;16272;48.188;9.964;2023-02-18T11:17:57;96470.78;;;13.30;61.69
29247;BME280;16272;48.188;9.964;2023-02-18T11:20:32;96466.00;;;13.15;60.91
29247;BME280;16272;48.188;9.964;2023-02-18T11:23:10;96449.84;;;13.71;59.68
29247;BME280;16272;48.188;9.964;2023-02-18T11:25:39;96459.34;;;13.01;61.58
29247;BME280;16272;48.188;9.964;2023-02-18T11:28:27;96455.44;;;13.41;60.44
29247;BME280;16272;48.188;9.964;2023-02-18T11:30:56;96455.78;;;13.29;60.43
29247;BME280;16272;48.188;9.964;2023-02-18T11:33:30;96456.09;;;13.26;60.49
29247;BME280;16272;48.188;9.964;2023-02-18T11:36:09;96448.41;;;13.40;60.57
29247;BME280;16272;48.188;9.964;2023-02-18T11:38:48;96456.13;;;12.80;61.89
29247;BME280;16272;48.188;9.964;2023-02-18T11:41:18;96471.28;;;12.52;61.99
29247;BME280;16272;48.188;9.964;2023-02-18T11:43:49;96462.03;;;12.74;61.46
29247;BME280;16272;48.188;9.964;2023-02-18T11:46:21;96449.84;;;12.99;60.65
29247;BME280;16272;48.188;9.964;2023-02-18T11:48:47;96455.63;;;12.94;60.89
29247;BME280;16272;48.188;9.964;2023-02-18T11:51:26;96438.56;;;13.23;60.98
29247;BME280;16272;48.188;9.964;2023-02-18T11:56:23;96429.56;;;13.06;60.96
29247;BME280;16272;48.188;9.964;2023-02-18T11:58:50;96423.69;;;13.74;58.99
29247;BME280;16272;48.188;9.964;2023-02-18T12:03:49;96409.19;;;13.59;59.90
29247;BME280;16272;48.188;9.964;2023-02-18T12:06:37;96410.75;;;13.62;60.21
29247;BME280;16272;48.188;9.964;2023-02-18T12:11:48;96408.16;;;13.16;60.10
29247;BME280;16272;48.188;9.964;2023-02-18T12:14:20;96396.69;;;13.33;60.22
29247;BME280;16272;48.188;9.964;2023-02-18T12:20:02;96383.84;;;12.65;60.55
29247;BME280;16272;48.188;9.964;2023-02-18T12:22:51;96402.22;;;12.86;60.21
29247;BME280;16272;48.188;9.964;2023-02-18T12:25:46;96396.97;;;12.48;61.04
29247;BME280;16272;48.188;9.964;2023-02-18T12:31:59;96388.75;;;12.42;60.85
29247;BME280;16272;48.188;9.964;2023-02-18T12:43:21;96378.97;;;12.32;61.22
29247;BME280;16272;48.188;9.964;2023-02-18T12:51:41;96375.03;;;12.37;61.92
29247;BME280;16272;48.188;9.964;2023-02-18T13:13:18;96370.88;;;12.52;61.14
29247;BME280;16272;48.188;9.964;2023-02-18T13:15:58;96368.66;;;12.65;61.37
29247;BME280;16272;48.188;9.964;2023-02-18T13:18:42;96376.69;;;12.83;60.81
29247;BME280;16272;48.188;9.964;2023-02-18T13:21:12;96378.38;;;12.39;62.14
29247;BME280;16272;48.188;9.964;2023-02-18T13:23:49;96368.38;;;12.68;60.87
29247;BME280;16272;48.188;9.964;2023-02-18T13:26:17;96369.59;;;12.28;61.98
29247;BME280;16272;48.188;9.964;2023-02-18T13:31:43;96368.53;;;12.67;61.17
29247;BME280;16272;48.188;9.964;2023-02-18T13:34:20;96370.09;;;12.42;61.58
29247;BME280;16272;48.188;9.964;2023-02-18T13:36:57;96369.47;;;12.76;61.31
29247;BME280;16272;48.188;9.964;2023-02-18T13:39:25;96372.41;;;12.55;61.66
29247;BME280;16272;48.188;9.964;2023-02-18T13:41:51;96368.78;;;12.46;61.97
29247;BME280;16272;48.188;9.964;2023-02-18T13:47:41;96362.69;;;12.36;62.35
29247;BME280;16272;48.188;9.964;2023-02-18T13:52:51;96354.69;;;12.36;61.29
29247;BME280;16272;48.188;9.964;2023-02-18T13:55:38;96362.03;;;12.52;61.71
29247;BME280;16272;48.188;9.964;2023-02-18T13:58:12;96353.38;;;12.49;61.45
29247;BME280;16272;48.188;9.964;2023-02-18T14:00:41;96356.50;;;12.81;61.00
29247;BME280;16272;48.188;9.964;2023-02-18T14:03:32;96353.38;;;12.49;60.95
29247;BME280;16272;48.188;9.964;2023-02-18T14:05:58;96351.13;;;13.53;59.59
29247;BME280;16272;48.188;9.964;2023-02-18T14:08:33;96351.59;;;13.30;59.88
29247;BME280;16272;48.188;9.964;2023-02-18T14:13:45;96337.75;;;13.45;60.29
29247;BME280;16272;48.188;9.964;2023-02-18T14:16:13;96350.75;;;13.12;60.32
29247;BME280;16272;48.188;9.964;2023-02-18T14:31:14;96367.09;;;13.09;60.51
29247;BME280;16272;48.188;9.964;2023-02-18T14:39:33;96359.69;;;13.20;60.66
29247;BME280;16272;48.188;9.964;2023-02-18T14:42:19;96358.31;;;12.98;60.34
29247;BME280;16272;48.188;9.964;2023-02-18T14:45:21;96359.09;;;13.09;59.85
29247;BME280;16272;48.188;9.964;2023-02-18T14:48:15;96373.13;;;12.93;59.71
29247;BME280;16272;48.188;9.964;2023-02-18T14:50:47;96362.16;;;12.78;60.38
29247;BME280;16272;48.188;9.964;2023-02-18T14:53:17;96369.13;;;13.15;59.31
29247;BME280;16272;48.188;9.964;2023-02-18T14:55:46;96361.63;;;12.74;60.04
29247;BME280;16272;48.188;9.964;2023-02-18T14:58:28;96360.47;;;12.77;59.88
29247;BME280;16272;48.188;9.964;2023-02-18T15:00:55;96350.03;;;12.83;60.25
29247;BME280;16272;48.188;9.964;2023-02-18T15:03:21;96360.59;;;12.57;61.35
29247;BME280;16272;48.188;9.964;2023-02-18T15:05:50;96359.53;;;12.50;60.88
29247;BME280;16272;48.188;9.964;2023-02-18T15:08:20;96348.81;;;12.60;60.73
29247;BME280;16272;48.188;9.964;2023-02-18T15:11:06;96345.44;;;12.12;62.12
29247;BME280;16272;48.188;9.964;2023-02-18T15:13:35;96339.44;;;12.28;61.54
29247;BME280;16272;48.188;9.964;2023-02-18T15:16:11;96338.63;;;12.00;62.58
29247;BME280;16272;48.188;9.964;2023-02-18T15:19:02;96331.88;;;12.33;61.41
29247;BME280;16272;48.188;9.964;2023-02-18T15:21:41;96339.50;;;12.18;61.89
29247;BME280;16272;48.188;9.964;2023-02-18T15:24:24;96330.06;;;12.52;61.53